sensor_id;sensor_type;location;lat;lon;timestamp;pressure;altitude;pressure_sealevel;temperature;humidity
62928;BME280;51070;52.236;-0.892;2023-12-20T00:00:41;101125.33;;;5.91;100.00
62928;BME280;51070;52.236;-0.892;2023-12-20T00:03:06;101118.50;;;5.88;100.00
62928;BME280;51070;52.236;-0.892;2023-12-20T00:05:31;101115.96;;;5.86;100.00
62928;BME280;51070;52.236;-0.892;2023-12-20T00:08:01;101118.66;;;5.86;100.00
62928;BME280;51070;52.236;-0.892;2023-12-20T00:10:26;101117.75;;;5.85;100.00
62928;BME280;51070;52.236;-0.892;2023-12-20T00:12:51;101119.81;;;5.85;100.00
62928;BME280;51070;52.236;-0.892;2023-12-20T00:15:17;101113.48;;;5.85;100.00
62928;BME280;51070;52.236;-0.892;2023-12-20T00:17:42;101106.95;;;5.85;100.00
62928;BME280;51070;52.236;-0.892;2023-12-20T00:20:07;101106.73;;;5.84;100.00
62928;BME280;51070;52.236;-0.892;2023-12-20T00:22:33;101107.36;;;5.83;100.00
62928;BME280;51070;52.236;-0.892;2023-12-20T00:24:58;101113.42;;;5.81;100.00
62928;BME280;51070;52.236;-0.892;2023-12-20T00:27:24;101117.70;;;5.78;100.00
62928;BME280;51070;52.236;-0.892;2023-12-20T00:29:49;101112.46;;;5.77;100.00
62928;BME280;51070;52.236;-0.892;2023-12-20T00:32:15;101109.95;;;5.75;100.00
62928;BME280;51070;52.236;-0.892;2023-12-20T00:34:41;101105.38;;;5.73;100.00
62928;BME280;51070;52.236;-0.892;2023-12-20T00:37:06;101104.25;;;5.71;100.00
62928;BME280;51070;52.236;-0.892;2023-12-20T00:39:31;101104.88;;;5.70;100.00
62928;BME280;51070;52.236;-0.892;2023-12-20T00:41:58;101103.63;;;5.69;100.00
62928;BME280;51070;52.236;-0.892;2023-12-20T00:44:23;101104.19;;;5.67;100.00
62928;BME280;51070;52.236;-0.892;2023-12-20T00:46:48;101101.66;;;5.65;100.00
62928;BME280;51070;52.236;-0.892;2023-12-20T00:49:14;101106.84;;;5.63;100.00
62928;BME280;51070;52.236;-0.892;2023-12-20T00:51:39;101107.23;;;5.60;100.00
62928;BME280;51070;52.236;-0.892;2023-12-20T00:54:05;101103.11;;;5.57;100.00
62928;BME280;51070;52.236;-0.892;2023-12-20T00:56:30;101101.83;;;5.53;100.00
62928;BME280;51070;52.236;-0.892;2023-12-20T00:58:55;101103.46;;;5.48;100.00
62928;BME280;51070;52.236;-0.892;2023-12-20T01:01:21;101103.17;;;5.43;100.00
62928;BME280;51070;52.236;-0.892;2023-12-20T01:03:46;101105.89;;;5.40;100.00
62928;BME280;51070;52.236;-0.892;2023-12-20T01:06:12;101109.05;;;5.38;100.00
62928;BME280;51070;52.236;-0.892;2023-12-20T01:08:37;101113.55;;;5.37;100.00
62928;BME280;51070;52.236;-0.892;2023-12-20T01:11:05;101124.83;;;5.36;100.00
62928;BME280;51070;52.236;-0.892;2023-12-20T01:13:31;101124.96;;;5.35;100.00
62928;BME280;51070;52.236;-0.892;2023-12-20T01:15:56;101120.36;;;5.36;100.00
62928;BME280;51070;52.236;-0.892;2023-12-20T01:18:21;101118.04;;;5.37;100.00
62928;BME280;51070;52.236;-0.892;2023-12-20T01:20:47;101108.61;;;5.37;100.00
62928;BME280;51070;52.236;-0.892;2023-12-20T01:23:12;101104.03;;;5.38;100.00
62928;BME280;51070;52.236;-0.892;2023-12-20T01:25:37;101096.55;;;5.39;100.00
62928;BME280;51070;52.236;-0.892;2023-12-20T01:28:03;101092.27;;;5.39;100.00
62928;BME280;51070;52.236;-0.892;2023-12-20T01:30:28;101087.93;;;5.41;100.00
62928;BME280;51070;52.236;-0.892;2023-12-20T01:32:53;101087.54;;;5.43;100.00
62928;BME280;51070;52.236;-0.892;2023-12-20T01:35:19;101082.29;;;5.44;100.00
62928;BME280;51070;52.236;-0.892;2023-12-20T01:37:45;101080.58;;;5.44;100.00
62928;BME280;51070;52.236;-0.892;2023-12-20T01:40:10;101081.05;;;5.43;100.00
62928;BME280;51070;52.236;-0.892;2023-12-20T01:42:36;101083.25;;;5.43;100.00
62928;BME280;51070;52.236;-0.892;2023-12-20T01:45:01;101079.77;;;5.42;100.00
62928;BME280;51070;52.236;-0.892;2023-12-20T01:47:27;101073.09;;;5.42;100.00
62928;BME280;51070;52.236;-0.892;2023-12-20T01:49:53;101069.89;;;5.43;100.00
62928;BME280;51070;52.236;-0.892;2023-12-20T01:52:19;101071.83;;;5.44;100.00
62928;BME280;51070;52.236;-0.892;2023-12-20T01:54:44;101075.52;;;5.46;100.00
62928;BME280;51070;52.236;-0.892;2023-12-20T01:57:10;101077.38;;;5.48;100.00
62928;BME280;51070;52.236;-0.892;2023-12-20T01:59:35;101075.41;;;5.49;100.00
62928;BME280;51070;52.236;-0.892;2023-12-20T02:02:02;101075.35;;;5.52;100.00
62928;BME280;51070;52.236;-0.892;2023-12-20T02:04:28;101080.23;;;5.53;100.00
62928;BME280;51070;52.236;-0.892;2023-12-20T02:06:54;101081.04;;;5.55;100.00
62928;BME280;51070;52.236;-0.892;2023-12-20T02:09:21;101076.79;;;5.55;100.00
62928;BME280;51070;52.236;-0.892;2023-12-20T02:11:47;101072.50;;;5.56;100.00
62928;BME280;51070;52.236;-0.892;2023-12-20T02:14:13;101068.85;;;5.55;100.00
62928;BME280;51070;52.236;-0.892;2023-12-20T02:16:38;101067.25;;;5.54;100.00
62928;BME280;51070;52.236;-0.892;2023-12-20T02:19:04;101061.67;;;5.52;100.00
62928;BME280;51070;52.236;-0.892;2023-12-20T02:21:34;101062.33;;;5.52;100.00
62928;BME280;51070;52.236;-0.892;2023-12-20T02:24:00;101066.28;;;5.52;100.00
62928;BME280;51070;52.236;-0.892;2023-12-20T02:26:26;101066.67;;;5.53;100.00
62928;BME280;51070;52.236;-0.892;2023-12-20T02:28:51;101074.98;;;5.54;100.00
62928;BME280;51070;52.236;-0.892;2023-12-20T02:31:16;101072.50;;;5.56;100.00
62928;BME280;51070;52.236;-0.892;2023-12-20T02:33:42;101074.83;;;5.58;100.00
62928;BME280;51070;52.236;-0.892;2023-12-20T02:36:07;101072.88;;;5.60;100.00
62928;BME280;51070;52.236;-0.892;2023-12-20T02:38:32;101080.02;;;5.61;100.00
62928;BME280;51070;52.236;-0.892;2023-12-20T02:40:59;101081.17;;;5.63;100.00
62928;BME280;51070;52.236;-0.892;2023-12-20T02:43:24;101077.65;;;5.65;100.00
62928;BME280;51070;52.236;-0.892;2023-12-20T02:45:49;101083.27;;;5.67;100.00
62928;BME280;51070;52.236;-0.892;2023-12-20T02:48:14;101081.67;;;5.69;100.00
62928;BME280;51070;52.236;-0.892;2023-12-20T02:50:40;101082.18;;;5.72;100.00
62928;BME280;51070;52.236;-0.892;2023-12-20T02:53:05;101076.89;;;5.75;100.00
62928;BME280;51070;52.236;-0.892;2023-12-20T02:55:30;101083.84;;;5.80;100.00
62928;BME280;51070;52.236;-0.892;2023-12-20T02:57:56;101081.77;;;5.85;100.00
62928;BME280;51070;52.236;-0.892;2023-12-20T03:00:21;101082.38;;;5.90;100.00
62928;BME280;51070;52.236;-0.892;2023-12-20T03:02:46;101089.02;;;5.95;100.00
62928;BME280;51070;52.236;-0.892;2023-12-20T03:05:11;101089.65;;;6.00;100.00
62928;BME280;51070;52.236;-0.892;2023-12-20T03:07:37;101094.47;;;6.03;100.00
62928;BME280;51070;52.236;-0.892;2023-12-20T03:10:03;101095.50;;;6.07;100.00
62928;BME280;51070;52.236;-0.892;2023-12-20T03:12:29;101101.44;;;6.08;100.00
62928;BME280;51070;52.236;-0.892;2023-12-20T03:14:54;101105.31;;;6.10;100.00
62928;BME280;51070;52.236;-0.892;2023-12-20T03:17:19;101105.94;;;6.12;100.00
62928;BME280;51070;52.236;-0.892;2023-12-20T03:19:46;101103.50;;;6.14;100.00
62928;BME280;51070;52.236;-0.892;2023-12-20T03:22:11;101096.75;;;6.17;100.00
62928;BME280;51070;52.236;-0.892;2023-12-20T03:24:36;101095.54;;;6.19;100.00
62928;BME280;51070;52.236;-0.892;2023-12-20T03:27:02;101089.45;;;6.21;100.00
62928;BME280;51070;52.236;-0.892;2023-12-20T03:29:27;101088.41;;;6.24;100.00
62928;BME280;51070;52.236;-0.892;2023-12-20T03:31:52;101083.08;;;6.26;100.00
62928;BME280;51070;52.236;-0.892;2023-12-20T03:34:17;101074.05;;;6.28;100.00
62928;BME280;51070;52.236;-0.892;2023-12-20T03:36:43;101075.27;;;6.28;100.00
62928;BME280;51070;52.236;-0.892;2023-12-20T03:39:09;101070.27;;;6.28;100.00
62928;BME280;51070;52.236;-0.892;2023-12-20T03:41:35;101064.64;;;6.28;100.00
62928;BME280;51070;52.236;-0.892;2023-12-20T03:44:00;101053.68;;;6.29;100.00
62928;BME280;51070;52.236;-0.892;2023-12-20T03:46:26;101050.08;;;6.29;100.00
62928;BME280;51070;52.236;-0.892;2023-12-20T03:48:51;101056.32;;;6.30;100.00
62928;BME280;51070;52.236;-0.892;2023-12-20T03:51:16;101051.63;;;6.32;100.00
62928;BME280;51070;52.236;-0.892;2023-12-20T03:53:42;101046.29;;;6.35;100.00
62928;BME280;51070;52.236;-0.892;2023-12-20T03:56:07;101046.29;;;6.39;100.00
62928;BME280;51070;52.236;-0.892;2023-12-20T03:58:32;101042.17;;;6.42;100.00
62928;BME280;51070;52.236;-0.892;2023-12-20T04:00:57;101037.90;;;6.45;100.00
62928;BME280;51070;52.236;-0.892;2023-12-20T04:03:23;101036.36;;;6.49;100.00
62928;BME280;51070;52.236;-0.892;2023-12-20T04:05:49;101039.16;;;6.50;100.00
62928;BME280;51070;52.236;-0.892;2023-12-20T04:08:14;101038.85;;;6.50;100.00
62928;BME280;51070;52.236;-0.892;2023-12-20T04:10:40;101041.46;;;6.51;100.00
62928;BME280;51070;52.236;-0.892;2023-12-20T04:13:05;101048.21;;;6.52;100.00
62928;BME280;51070;52.236;-0.892;2023-12-20T04:15:31;101051.31;;;6.52;100.00
62928;BME280;51070;52.236;-0.892;2023-12-20T04:17:56;101049.58;;;6.52;100.00
62928;BME280;51070;52.236;-0.892;2023-12-20T04:20:21;101047.16;;;6.51;100.00
62928;BME280;51070;52.236;-0.892;2023-12-20T04:22:47;101040.15;;;6.52;100.00
62928;BME280;51070;52.236;-0.892;2023-12-20T04:25:12;101034.39;;;6.53;100.00
62928;BME280;51070;52.236;-0.892;2023-12-20T04:27:37;101030.57;;;6.56;100.00
62928;BME280;51070;52.236;-0.892;2023-12-20T04:30:03;101033.84;;;6.59;100.00
62928;BME280;51070;52.236;-0.892;2023-12-20T04:32:29;101036.61;;;6.63;100.00
62928;BME280;51070;52.236;-0.892;2023-12-20T04:34:54;101033.33;;;6.66;100.00
62928;BME280;51070;52.236;-0.892;2023-12-20T04:37:19;101035.90;;;6.69;100.00
62928;BME280;51070;52.236;-0.892;2023-12-20T04:39:45;101031.38;;;6.71;100.00
62928;BME280;51070;52.236;-0.892;2023-12-20T04:42:10;101032.66;;;6.72;100.00
62928;BME280;51070;52.236;-0.892;2023-12-20T04:44:35;101029.42;;;6.73;100.00
62928;BME280;51070;52.236;-0.892;2023-12-20T04:47:00;101029.53;;;6.72;100.00
62928;BME280;51070;52.236;-0.892;2023-12-20T04:49:26;101032.96;;;6.71;100.00
62928;BME280;51070;52.236;-0.892;2023-12-20T04:51:51;101030.98;;;6.73;100.00
62928;BME280;51070;52.236;-0.892;2023-12-20T04:54:17;101030.34;;;6.74;100.00
62928;BME280;51070;52.236;-0.892;2023-12-20T04:56:42;101023.86;;;6.75;100.00
62928;BME280;51070;52.236;-0.892;2023-12-20T04:59:07;101018.08;;;6.76;100.00
62928;BME280;51070;52.236;-0.892;2023-12-20T05:01:33;101015.25;;;6.78;100.00
62928;BME280;51070;52.236;-0.892;2023-12-20T05:03:58;101015.02;;;6.80;100.00
62928;BME280;51070;52.236;-0.892;2023-12-20T05:06:24;101007.83;;;6.80;100.00
62928;BME280;51070;52.236;-0.892;2023-12-20T05:08:49;100996.91;;;6.79;100.00
62928;BME280;51070;52.236;-0.892;2023-12-20T05:11:15;100992.55;;;6.77;100.00
62928;BME280;51070;52.236;-0.892;2023-12-20T05:13:41;100981.05;;;6.74;100.00
62928;BME280;51070;52.236;-0.892;2023-12-20T05:16:06;100976.38;;;6.70;100.00
62928;BME280;51070;52.236;-0.892;2023-12-20T05:18:31;100968.02;;;6.68;100.00
62928;BME280;51070;52.236;-0.892;2023-12-20T05:20:57;100975.95;;;6.68;100.00
62928;BME280;51070;52.236;-0.892;2023-12-20T05:23:23;100969.11;;;6.69;100.00
62928;BME280;51070;52.236;-0.892;2023-12-20T05:25:48;100976.70;;;6.70;100.00
62928;BME280;51070;52.236;-0.892;2023-12-20T05:28:14;100975.51;;;6.70;100.00
62928;BME280;51070;52.236;-0.892;2023-12-20T05:30:40;100979.86;;;6.71;100.00
62928;BME280;51070;52.236;-0.892;2023-12-20T05:33:05;100978.71;;;6.72;100.00
62928;BME280;51070;52.236;-0.892;2023-12-20T05:35:30;100978.02;;;6.72;100.00
62928;BME280;51070;52.236;-0.892;2023-12-20T05:37:55;100978.70;;;6.72;100.00
62928;BME280;51070;52.236;-0.892;2023-12-20T05:40:21;100985.36;;;6.71;100.00
62928;BME280;51070;52.236;-0.892;2023-12-20T05:42:46;100987.52;;;6.69;100.00
62928;BME280;51070;52.236;-0.892;2023-12-20T05:45:11;100992.34;;;6.66;100.00
62928;BME280;51070;52.236;-0.892;2023-12-20T05:47:37;100988.04;;;6.63;100.00
62928;BME280;51070;52.236;-0.892;2023-12-20T05:50:02;100978.11;;;6.61;100.00
62928;BME280;51070;52.236;-0.892;2023-12-20T05:52:28;100979.80;;;6.60;100.00
62928;BME280;51070;52.236;-0.892;2023-12-20T05:54:54;100977.63;;;6.61;100.00
62928;BME280;51070;52.236;-0.892;2023-12-20T05:57:21;100968.79;;;6.63;100.00
62928;BME280;51070;52.236;-0.892;2023-12-20T05:59:46;100971.13;;;6.65;100.00
62928;BME280;51070;52.236;-0.892;2023-12-20T06:02:11;100973.55;;;6.69;100.00
62928;BME280;51070;52.236;-0.892;2023-12-20T06:04:36;100968.52;;;6.71;100.00
62928;BME280;51070;52.236;-0.892;2023-12-20T06:07:02;100969.11;;;6.72;100.00
62928;BME280;51070;52.236;-0.892;2023-12-20T06:09:27;100967.41;;;6.73;100.00
62928;BME280;51070;52.236;-0.892;2023-12-20T06:11:52;100966.24;;;6.73;100.00
62928;BME280;51070;52.236;-0.892;2023-12-20T06:14:17;100964.01;;;6.73;100.00
62928;BME280;51070;52.236;-0.892;2023-12-20T06:16:43;100965.20;;;6.73;100.00
62928;BME280;51070;52.236;-0.892;2023-12-20T06:19:08;100967.70;;;6.72;100.00
62928;BME280;51070;52.236;-0.892;2023-12-20T06:21:34;100962.39;;;6.72;100.00
62928;BME280;51070;52.236;-0.892;2023-12-20T06:23:59;100965.39;;;6.73;100.00
62928;BME280;51070;52.236;-0.892;2023-12-20T06:26:25;100965.23;;;6.73;100.00
62928;BME280;51070;52.236;-0.892;2023-12-20T06:28:50;100968.69;;;6.74;100.00
62928;BME280;51070;52.236;-0.892;2023-12-20T06:31:15;100972.89;;;6.76;100.00
62928;BME280;51070;52.236;-0.892;2023-12-20T06:33:41;100972.54;;;6.79;100.00
62928;BME280;51070;52.236;-0.892;2023-12-20T06:36:07;100970.63;;;6.82;100.00
62928;BME280;51070;52.236;-0.892;2023-12-20T06:38:32;100963.33;;;6.84;100.00
62928;BME280;51070;52.236;-0.892;2023-12-20T06:40:57;100956.55;;;6.85;100.00
62928;BME280;51070;52.236;-0.892;2023-12-20T06:43:23;100956.36;;;6.85;100.00
62928;BME280;51070;52.236;-0.892;2023-12-20T06:45:49;100973.23;;;6.86;100.00
62928;BME280;51070;52.236;-0.892;2023-12-20T06:48:14;100971.66;;;6.85;100.00
62928;BME280;51070;52.236;-0.892;2023-12-20T06:50:39;100974.27;;;6.83;100.00
62928;BME280;51070;52.236;-0.892;2023-12-20T06:53:05;100976.23;;;6.81;100.00
62928;BME280;51070;52.236;-0.892;2023-12-20T06:55:32;100967.05;;;6.79;100.00
62928;BME280;51070;52.236;-0.892;2023-12-20T06:57:57;100956.98;;;6.77;100.00
62928;BME280;51070;52.236;-0.892;2023-12-20T07:00:23;100964.61;;;6.75;100.00
62928;BME280;51070;52.236;-0.892;2023-12-20T07:02:48;100959.40;;;6.74;100.00
62928;BME280;51070;52.236;-0.892;2023-12-20T07:05:15;100954.07;;;6.74;100.00
62928;BME280;51070;52.236;-0.892;2023-12-20T07:07:41;100955.23;;;6.73;100.00
62928;BME280;51070;52.236;-0.892;2023-12-20T07:10:06;100964.13;;;6.72;100.00
62928;BME280;51070;52.236;-0.892;2023-12-20T07:12:32;100967.38;;;6.72;100.00
62928;BME280;51070;52.236;-0.892;2023-12-20T07:14:58;100964.79;;;6.72;100.00
62928;BME280;51070;52.236;-0.892;2023-12-20T07:17:23;100961.80;;;6.71;100.00
62928;BME280;51070;52.236;-0.892;2023-12-20T07:19:48;100964.46;;;6.69;100.00
62928;BME280;51070;52.236;-0.892;2023-12-20T07:22:13;100957.63;;;6.66;100.00
62928;BME280;51070;52.236;-0.892;2023-12-20T07:24:40;100956.76;;;6.63;100.00
62928;BME280;51070;52.236;-0.892;2023-12-20T07:27:05;100960.98;;;6.58;100.00
62928;BME280;51070;52.236;-0.892;2023-12-20T07:29:30;100970.45;;;6.55;100.00
62928;BME280;51070;52.236;-0.892;2023-12-20T07:31:56;100966.57;;;6.53;100.00
62928;BME280;51070;52.236;-0.892;2023-12-20T07:34:21;100966.01;;;6.52;100.00
62928;BME280;51070;52.236;-0.892;2023-12-20T07:36:46;100971.16;;;6.52;100.00
62928;BME280;51070;52.236;-0.892;2023-12-20T07:39:12;100981.67;;;6.53;100.00
62928;BME280;51070;52.236;-0.892;2023-12-20T07:41:37;100982.94;;;6.55;100.00
62928;BME280;51070;52.236;-0.892;2023-12-20T07:44:03;100973.14;;;6.57;100.00
62928;BME280;51070;52.236;-0.892;2023-12-20T07:46:29;100968.25;;;6.59;100.00
62928;BME280;51070;52.236;-0.892;2023-12-20T07:48:54;100962.56;;;6.62;100.00
62928;BME280;51070;52.236;-0.892;2023-12-20T07:51:19;100965.29;;;6.65;100.00
62928;BME280;51070;52.236;-0.892;2023-12-20T07:53:46;100966.35;;;6.65;100.00
62928;BME280;51070;52.236;-0.892;2023-12-20T07:56:18;100974.19;;;6.64;100.00
62928;BME280;51070;52.236;-0.892;2023-12-20T07:58:44;100978.08;;;6.63;100.00
62928;BME280;51070;52.236;-0.892;2023-12-20T08:01:10;100974.58;;;6.62;100.00
62928;BME280;51070;52.236;-0.892;2023-12-20T08:03:35;100969.92;;;6.61;100.00
62928;BME280;51070;52.236;-0.892;2023-12-20T08:06:01;100975.27;;;6.62;100.00
62928;BME280;51070;52.236;-0.892;2023-12-20T08:08:27;100977.89;;;6.63;100.00
62928;BME280;51070;52.236;-0.892;2023-12-20T08:10:53;100977.95;;;6.64;100.00
62928;BME280;51070;52.236;-0.892;2023-12-20T08:13:18;100977.13;;;6.65;100.00
62928;BME280;51070;52.236;-0.892;2023-12-20T08:15:43;100977.02;;;6.66;100.00
62928;BME280;51070;52.236;-0.892;2023-12-20T08:18:09;100981.23;;;6.68;100.00
62928;BME280;51070;52.236;-0.892;2023-12-20T08:20:34;100988.23;;;6.70;100.00
62928;BME280;51070;52.236;-0.892;2023-12-20T08:22:59;100989.22;;;6.72;100.00
62928;BME280;51070;52.236;-0.892;2023-12-20T08:25:25;100998.40;;;6.74;100.00
62928;BME280;51070;52.236;-0.892;2023-12-20T08:27:51;101001.05;;;6.75;100.00
62928;BME280;51070;52.236;-0.892;2023-12-20T08:30:16;100996.96;;;6.79;100.00
62928;BME280;51070;52.236;-0.892;2023-12-20T08:32:49;100992.89;;;6.81;100.00
62928;BME280;51070;52.236;-0.892;2023-12-20T08:35:14;100985.39;;;6.82;100.00
62928;BME280;51070;52.236;-0.892;2023-12-20T08:37:40;100997.92;;;6.85;100.00
62928;BME280;51070;52.236;-0.892;2023-12-20T08:40:05;100996.90;;;6.92;100.00
62928;BME280;51070;52.236;-0.892;2023-12-20T08:42:31;100988.74;;;7.00;100.00
62928;BME280;51070;52.236;-0.892;2023-12-20T08:44:59;100997.64;;;7.09;100.00
62928;BME280;51070;52.236;-0.892;2023-12-20T08:47:24;100986.52;;;7.17;100.00
62928;BME280;51070;52.236;-0.892;2023-12-20T08:49:50;100978.98;;;7.25;100.00
62928;BME280;51070;52.236;-0.892;2023-12-20T08:52:15;100979.39;;;7.37;100.00
62928;BME280;51070;52.236;-0.892;2023-12-20T08:54:41;100985.50;;;7.49;100.00
62928;BME280;51070;52.236;-0.892;2023-12-20T08:57:06;100984.36;;;7.57;100.00
62928;BME280;51070;52.236;-0.892;2023-12-20T08:59:32;100981.92;;;7.64;100.00
62928;BME280;51070;52.236;-0.892;2023-12-20T09:01:57;100980.96;;;7.69;100.00
62928;BME280;51070;52.236;-0.892;2023-12-20T09:04:23;100978.17;;;7.72;100.00
62928;BME280;51070;52.236;-0.892;2023-12-20T09:06:48;100972.89;;;7.73;100.00
62928;BME280;51070;52.236;-0.892;2023-12-20T09:09:13;100976.41;;;7.75;100.00
62928;BME280;51070;52.236;-0.892;2023-12-20T09:11:39;100985.63;;;7.76;100.00
62928;BME280;51070;52.236;-0.892;2023-12-20T09:14:05;100995.65;;;7.78;100.00
62928;BME280;51070;52.236;-0.892;2023-12-20T09:16:30;101005.02;;;7.79;100.00
62928;BME280;51070;52.236;-0.892;2023-12-20T09:18:56;101003.59;;;7.81;100.00
62928;BME280;51070;52.236;-0.892;2023-12-20T09:21:22;101001.69;;;7.85;100.00
62928;BME280;51070;52.236;-0.892;2023-12-20T09:23:47;100987.16;;;7.87;100.00
62928;BME280;51070;52.236;-0.892;2023-12-20T09:26:12;100983.98;;;7.89;100.00
62928;BME280;51070;52.236;-0.892;2023-12-20T09:28:38;100978.21;;;7.91;100.00
62928;BME280;51070;52.236;-0.892;2023-12-20T09:31:05;100995.02;;;7.92;100.00
62928;BME280;51070;52.236;-0.892;2023-12-20T09:33:30;100978.70;;;7.94;100.00
62928;BME280;51070;52.236;-0.892;2023-12-20T09:35:56;100983.88;;;7.94;100.00
62928;BME280;51070;52.236;-0.892;2023-12-20T09:38:21;100986.02;;;7.95;100.00
62928;BME280;51070;52.236;-0.892;2023-12-20T09:40:47;100983.30;;;7.96;100.00
62928;BME280;51070;52.236;-0.892;2023-12-20T09:43:15;100989.65;;;8.00;100.00
62928;BME280;51070;52.236;-0.892;2023-12-20T09:45:47;100983.30;;;8.04;100.00
62928;BME280;51070;52.236;-0.892;2023-12-20T09:48:13;100986.76;;;8.08;100.00
62928;BME280;51070;52.236;-0.892;2023-12-20T09:50:40;100985.03;;;8.12;100.00
62928;BME280;51070;52.236;-0.892;2023-12-20T09:53:05;100989.67;;;8.16;100.00
62928;BME280;51070;52.236;-0.892;2023-12-20T09:55:35;100988.48;;;8.19;100.00
62928;BME280;51070;52.236;-0.892;2023-12-20T09:58:01;100994.94;;;8.21;100.00
62928;BME280;51070;52.236;-0.892;2023-12-20T10:00:26;101000.02;;;8.23;100.00
62928;BME280;51070;52.236;-0.892;2023-12-20T10:02:58;100997.86;;;8.24;100.00
62928;BME280;51070;52.236;-0.892;2023-12-20T10:05:30;100998.05;;;8.25;100.00
62928;BME280;51070;52.236;-0.892;2023-12-20T10:07:56;100989.48;;;8.25;100.00
62928;BME280;51070;52.236;-0.892;2023-12-20T10:10:22;100983.80;;;8.26;100.00
62928;BME280;51070;52.236;-0.892;2023-12-20T10:15:35;100981.88;;;8.32;100.00
62928;BME280;51070;52.236;-0.892;2023-12-20T10:18:01;100977.39;;;8.35;100.00
62928;BME280;51070;52.236;-0.892;2023-12-20T10:20:27;100967.89;;;8.39;100.00
62928;BME280;51070;52.236;-0.892;2023-12-20T10:22:54;100965.33;;;8.43;100.00
62928;BME280;51070;52.236;-0.892;2023-12-20T10:25:20;100963.46;;;8.48;100.00
62928;BME280;51070;52.236;-0.892;2023-12-20T10:27:46;100960.20;;;8.52;100.00
62928;BME280;51070;52.236;-0.892;2023-12-20T10:30:11;100956.52;;;8.54;100.00
62928;BME280;51070;52.236;-0.892;2023-12-20T10:32:37;100958.52;;;8.56;100.00
62928;BME280;51070;52.236;-0.892;2023-12-20T10:35:02;100957.17;;;8.61;100.00
62928;BME280;51070;52.236;-0.892;2023-12-20T10:37:28;100948.95;;;8.66;100.00
62928;BME280;51070;52.236;-0.892;2023-12-20T10:39:53;100944.85;;;8.71;100.00
62928;BME280;51070;52.236;-0.892;2023-12-20T10:42:22;100946.36;;;8.73;100.00
62928;BME280;51070;52.236;-0.892;2023-12-20T10:44:50;100943.88;;;8.76;100.00
62928;BME280;51070;52.236;-0.892;2023-12-20T10:47:16;100944.02;;;8.80;100.00
62928;BME280;51070;52.236;-0.892;2023-12-20T10:49:41;100948.91;;;8.85;100.00
62928;BME280;51070;52.236;-0.892;2023-12-20T10:52:07;100955.32;;;8.90;100.00
62928;BME280;51070;52.236;-0.892;2023-12-20T10:54:34;100952.25;;;8.91;100.00
62928;BME280;51070;52.236;-0.892;2023-12-20T10:56:59;100950.52;;;8.90;100.00
62928;BME280;51070;52.236;-0.892;2023-12-20T10:59:25;100946.89;;;8.90;100.00
62928;BME280;51070;52.236;-0.892;2023-12-20T11:01:52;100940.25;;;8.92;100.00
62928;BME280;51070;52.236;-0.892;2023-12-20T11:04:23;100936.40;;;9.00;100.00
62928;BME280;51070;52.236;-0.892;2023-12-20T11:06:58;100928.02;;;9.09;100.00
62928;BME280;51070;52.236;-0.892;2023-12-20T11:09:31;100916.38;;;9.15;100.00
62928;BME280;51070;52.236;-0.892;2023-12-20T11:12:03;100896.95;;;9.21;100.00
62928;BME280;51070;52.236;-0.892;2023-12-20T11:17:06;100895.14;;;9.32;100.00
62928;BME280;51070;52.236;-0.892;2023-12-20T11:19:32;100892.64;;;9.34;100.00
62928;BME280;51070;52.236;-0.892;2023-12-20T11:21:57;100881.68;;;9.40;100.00
62928;BME280;51070;52.236;-0.892;2023-12-20T11:24:22;100876.83;;;9.53;100.00
62928;BME280;51070;52.236;-0.892;2023-12-20T11:26:49;100865.92;;;9.70;100.00
62928;BME280;51070;52.236;-0.892;2023-12-20T11:29:34;100857.27;;;9.92;100.00
62928;BME280;51070;52.236;-0.892;2023-12-20T11:32:01;100864.54;;;10.16;100.00
62928;BME280;51070;52.236;-0.892;2023-12-20T11:34:27;100862.45;;;10.25;99.83
62928;BME280;51070;52.236;-0.892;2023-12-20T11:37:00;100855.67;;;10.28;99.32
62928;BME280;51070;52.236;-0.892;2023-12-20T11:39:26;100852.27;;;10.44;99.66
62928;BME280;51070;52.236;-0.892;2023-12-20T11:41:53;100853.36;;;10.66;98.46
62928;BME280;51070;52.236;-0.892;2023-12-20T11:44:19;100847.86;;;10.82;97.17
62928;BME280;51070;52.236;-0.892;2023-12-20T11:46:45;100850.33;;;10.94;96.74
62928;BME280;51070;52.236;-0.892;2023-12-20T11:49:11;100841.67;;;10.93;95.80
62928;BME280;51070;52.236;-0.892;2023-12-20T11:51:40;100827.55;;;10.91;95.91
62928;BME280;51070;52.236;-0.892;2023-12-20T11:54:05;100819.52;;;10.93;96.30
62928;BME280;51070;52.236;-0.892;2023-12-20T11:56:31;100822.42;;;10.92;96.08
62928;BME280;51070;52.236;-0.892;2023-12-20T11:58:56;100808.15;;;10.84;96.42
62928;BME280;51070;52.236;-0.892;2023-12-20T12:01:21;100807.12;;;10.79;96.26
62928;BME280;51070;52.236;-0.892;2023-12-20T12:03:47;100804.50;;;10.78;95.80
62928;BME280;51070;52.236;-0.892;2023-12-20T12:06:12;100801.41;;;10.78;96.29
62928;BME280;51070;52.236;-0.892;2023-12-20T12:08:38;100798.21;;;10.76;96.17
62928;BME280;51070;52.236;-0.892;2023-12-20T12:11:04;100790.66;;;10.72;96.65
62928;BME280;51070;52.236;-0.892;2023-12-20T12:13:29;100790.15;;;10.62;96.13
62928;BME280;51070;52.236;-0.892;2023-12-20T12:15:54;100792.96;;;10.53;96.49
62928;BME280;51070;52.236;-0.892;2023-12-20T12:18:20;100795.85;;;10.46;96.89
62928;BME280;51070;52.236;-0.892;2023-12-20T12:20:45;100784.39;;;10.45;96.75
62928;BME280;51070;52.236;-0.892;2023-12-20T12:23:11;100764.81;;;10.48;96.77
62928;BME280;51070;52.236;-0.892;2023-12-20T12:25:36;100766.49;;;10.58;96.60
62928;BME280;51070;52.236;-0.892;2023-12-20T12:28:02;100770.39;;;10.60;96.18
62928;BME280;51070;52.236;-0.892;2023-12-20T12:30:28;100776.98;;;10.56;96.48
62928;BME280;51070;52.236;-0.892;2023-12-20T12:32:53;100788.86;;;10.55;96.96
62928;BME280;51070;52.236;-0.892;2023-12-20T12:35:19;100791.04;;;10.52;96.93
62928;BME280;51070;52.236;-0.892;2023-12-20T12:37:45;100793.71;;;10.45;97.45